sensor_id;sensor_type;location;lat;lon;timestamp;temperature;humidity
4687;DHT22;2357;47.316;-1.348;2023-11-22T00:00:02;11.00;99.90
4687;DHT22;2357;47.316;-1.348;2023-11-22T00:02:29;10.90;99.90
4687;DHT22;2357;47.316;-1.348;2023-11-22T00:04:55;10.90;99.90
4687;DHT22;2357;47.316;-1.348;2023-11-22T00:07:21;10.90;99.90
4687;DHT22;2357;47.316;-1.348;2023-11-22T00:09:47;10.90;99.90
4687;DHT22;2357;47.316;-1.348;2023-11-22T00:12:13;11.00;99.90
4687;DHT22;2357;47.316;-1.348;2023-11-22T00:14:39;11.00;99.90
4687;DHT22;2357;47.316;-1.348;2023-11-22T00:17:04;10.90;99.90
4687;DHT22;2357;47.316;-1.348;2023-11-22T00:19:30;10.90;99.90
4687;DHT22;2357;47.316;-1.348;2023-11-22T00:21:56;10.90;99.90
4687;DHT22;2357;47.316;-1.348;2023-11-22T00:24:22;10.90;99.90
4687;DHT22;2357;47.316;-1.348;2023-11-22T00:26:47;10.80;99.90
4687;DHT22;2357;47.316;-1.348;2023-11-22T00:29:13;10.80;99.90
4687;DHT22;2357;47.316;-1.348;2023-11-22T00:31:38;10.80;99.90
4687;DHT22;2357;47.316;-1.348;2023-11-22T00:34:05;10.70;99.90
4687;DHT22;2357;47.316;-1.348;2023-11-22T00:36:32;10.60;99.90
4687;DHT22;2357;47.316;-1.348;2023-11-22T00:38:58;10.60;99.90
4687;DHT22;2357;47.316;-1.348;2023-11-22T00:41:23;10.50;99.90
4687;DHT22;2357;47.316;-1.348;2023-11-22T00:43:49;10.50;99.90
4687;DHT22;2357;47.316;-1.348;2023-11-22T00:46:14;10.50;99.90
4687;DHT22;2357;47.316;-1.348;2023-11-22T00:48:40;10.50;99.90
4687;DHT22;2357;47.316;-1.348;2023-11-22T00:51:06;10.40;99.90
4687;DHT22;2357;47.316;-1.348;2023-11-22T00:53:37;10.40;99.90
4687;DHT22;2357;47.316;-1.348;2023-11-22T00:56:03;10.40;99.90
4687;DHT22;2357;47.316;-1.348;2023-11-22T00:58:29;10.30;99.90
4687;DHT22;2357;47.316;-1.348;2023-11-22T01:00:54;10.30;99.90
4687;DHT22;2357;47.316;-1.348;2023-11-22T01:03:20;10.20;99.90
4687;DHT22;2357;47.316;-1.348;2023-11-22T01:05:46;10.30;99.90
4687;DHT22;2357;47.316;-1.348;2023-11-22T01:08:12;10.20;99.90
4687;DHT22;2357;47.316;-1.348;2023-11-22T01:10:39;10.30;99.90
4687;DHT22;2357;47.316;-1.348;2023-11-22T01:13:05;10.30;99.90
4687;DHT22;2357;47.316;-1.348;2023-11-22T01:15:30;10.30;99.90
4687;DHT22;2357;47.316;-1.348;2023-11-22T01:17:56;10.30;99.90
4687;DHT22;2357;47.316;-1.348;2023-11-22T01:20:23;10.40;99.90
4687;DHT22;2357;47.316;-1.348;2023-11-22T01:22:49;10.50;99.90
4687;DHT22;2357;47.316;-1.348;2023-11-22T01:25:15;10.50;99.90
4687;DHT22;2357;47.316;-1.348;2023-11-22T01:27:40;10.50;99.90
4687;DHT22;2357;47.316;-1.348;2023-11-22T01:30:06;10.50;99.90
4687;DHT22;2357;47.316;-1.348;2023-11-22T01:32:35;10.60;99.90
4687;DHT22;2357;47.316;-1.348;2023-11-22T01:35:01;10.60;99.90
4687;DHT22;2357;47.316;-1.348;2023-11-22T01:37:27;10.60;99.90
4687;DHT22;2357;47.316;-1.348;2023-11-22T01:39:53;10.70;99.90
4687;DHT22;2357;47.316;-1.348;2023-11-22T01:42:20;10.70;99.90
4687;DHT22;2357;47.316;-1.348;2023-11-22T01:44:46;10.70;99.90
4687;DHT22;2357;47.316;-1.348;2023-11-22T01:47:13;10.80;99.90
4687;DHT22;2357;47.316;-1.348;2023-11-22T01:49:39;10.80;99.90
4687;DHT22;2357;47.316;-1.348;2023-11-22T01:52:05;10.80;99.90
4687;DHT22;2357;47.316;-1.348;2023-11-22T01:54:32;10.80;99.90
4687;DHT22;2357;47.316;-1.348;2023-11-22T01:56:59;10.80;99.90
4687;DHT22;2357;47.316;-1.348;2023-11-22T01:59:29;10.80;99.90
4687;DHT22;2357;47.316;-1.348;2023-11-22T02:01:57;10.80;99.90
4687;DHT22;2357;47.316;-1.348;2023-11-22T02:04:23;10.80;99.90
4687;DHT22;2357;47.316;-1.348;2023-11-22T02:06:48;10.80;99.90
4687;DHT22;2357;47.316;-1.348;2023-11-22T02:09:15;10.80;99.90
4687;DHT22;2357;47.316;-1.348;2023-11-22T02:11:44;10.80;99.90
4687;DHT22;2357;47.316;-1.348;2023-11-22T02:14:14;10.80;99.90
4687;DHT22;2357;47.316;-1.348;2023-11-22T02:16:41;10.80;99.90
4687;DHT22;2357;47.316;-1.348;2023-11-22T02:19:08;10.80;99.90
4687;DHT22;2357;47.316;-1.348;2023-11-22T02:21:39;10.80;99.90
4687;DHT22;2357;47.316;-1.348;2023-11-22T02:24:05;10.80;99.90
4687;DHT22;2357;47.316;-1.348;2023-11-22T02:26:30;10.90;99.90
4687;DHT22;2357;47.316;-1.348;2023-11-22T02:28:56;10.80;99.90
4687;DHT22;2357;47.316;-1.348;2023-11-22T02:31:22;10.80;99.90
4687;DHT22;2357;47.316;-1.348;2023-11-22T02:33:49;10.80;99.90
4687;DHT22;2357;47.316;-1.348;2023-11-22T02:36:15;10.90;99.90
4687;DHT22;2357;47.316;-1.348;2023-11-22T02:38:41;10.80;99.90
4687;DHT22;2357;47.316;-1.348;2023-11-22T02:41:07;10.80;99.90
4687;DHT22;2357;47.316;-1.348;2023-11-22T02:43:34;10.80;99.90
4687;DHT22;2357;47.316;-1.348;2023-11-22T02:46:01;10.90;99.90
4687;DHT22;2357;47.316;-1.348;2023-11-22T02:48:26;10.90;99.90
4687;DHT22;2357;47.316;-1.348;2023-11-22T02:50:52;10.90;99.90
4687;DHT22;2357;47.316;-1.348;2023-11-22T02:53:19;10.90;99.90
4687;DHT22;2357;47.316;-1.348;2023-11-22T02:55:45;10.90;99.90
4687;DHT22;2357;47.316;-1.348;2023-11-22T02:58:11;10.90;99.90
4687;DHT22;2357;47.316;-1.348;2023-11-22T03:00:39;10.90;99.90
4687;DHT22;2357;47.316;-1.348;2023-11-22T03:03:05;10.90;99.90
4687;DHT22;2357;47.316;-1.348;2023-11-22T03:05:35;10.90;99.90
4687;DHT22;2357;47.316;-1.348;2023-11-22T03:08:03;10.90;99.90
4687;DHT22;2357;47.316;-1.348;2023-11-22T03:10:29;10.90;99.90
4687;DHT22;2357;47.316;-1.348;2023-11-22T03:12:58;10.90;99.90
4687;DHT22;2357;47.316;-1.348;2023-11-22T03:15:23;10.90;99.90
4687;DHT22;2357;47.316;-1.348;2023-11-22T03:17:49;10.90;99.90
4687;DHT22;2357;47.316;-1.348;2023-11-22T03:20:15;11.00;99.90
4687;DHT22;2357;47.316;-1.348;2023-11-22T03:22:41;10.90;99.90
4687;DHT22;2357;47.316;-1.348;2023-11-22T03:25:10;10.90;99.90
4687;DHT22;2357;47.316;-1.348;2023-11-22T03:27:37;10.90;99.90
4687;DHT22;2357;47.316;-1.348;2023-11-22T03:30:03;10.90;99.90
4687;DHT22;2357;47.316;-1.348;2023-11-22T03:32:29;11.00;99.90
4687;DHT22;2357;47.316;-1.348;2023-11-22T03:34:55;11.00;99.90
4687;DHT22;2357;47.316;-1.348;2023-11-22T03:37:20;10.90;99.90
4687;DHT22;2357;47.316;-1.348;2023-11-22T03:39:46;11.00;99.90
4687;DHT22;2357;47.316;-1.348;2023-11-22T03:42:15;10.90;99.90
4687;DHT22;2357;47.316;-1.348;2023-11-22T03:44:41;11.00;99.90
4687;DHT22;2357;47.316;-1.348;2023-11-22T03:47:07;11.00;99.90
4687;DHT22;2357;47.316;-1.348;2023-11-22T03:49:33;11.00;99.90
4687;DHT22;2357;47.316;-1.348;2023-11-22T03:51:58;11.00;99.90
4687;DHT22;2357;47.316;-1.348;2023-11-22T03:54:24;10.90;99.90
4687;DHT22;2357;47.316;-1.348;2023-11-22T03:56:50;11.00;99.90
4687;DHT22;2357;47.316;-1.348;2023-11-22T03:59:16;11.00;99.90
4687;DHT22;2357;47.316;-1.348;2023-11-22T04:01:41;11.00;99.90
4687;DHT22;2357;47.316;-1.348;2023-11-22T04:04:07;11.00;99.90
4687;DHT22;2357;47.316;-1.348;2023-11-22T04:06:35;11.00;99.90
4687;DHT22;2357;47.316;-1.348;2023-11-22T04:09:00;11.00;99.90
4687;DHT22;2357;47.316;-1.348;2023-11-22T04:11:27;11.00;99.90
4687;DHT22;2357;47.316;-1.348;2023-11-22T04:13:55;11.00;99.90
4687;DHT22;2357;47.316;-1.348;2023-11-22T04:16:20;11.00;99.90
4687;DHT22;2357;47.316;-1.348;2023-11-22T04:18:46;11.00;99.90
4687;DHT22;2357;47.316;-1.348;2023-11-22T04:21:12;11.00;99.90
4687;DHT22;2357;47.316;-1.348;2023-11-22T04:23:37;11.00;99.90
4687;DHT22;2357;47.316;-1.348;2023-11-22T04:26:03;11.00;99.90
4687;DHT22;2357;47.316;-1.348;2023-11-22T04:28:29;11.00;99.90
4687;DHT22;2357;47.316;-1.348;2023-11-22T04:30:55;10.90;99.90
4687;DHT22;2357;47.316;-1.348;2023-11-22T04:33:21;10.90;99.90
4687;DHT22;2357;47.316;-1.348;2023-11-22T04:35:48;10.90;99.90
4687;DHT22;2357;47.316;-1.348;2023-11-22T04:38:14;10.90;99.90
4687;DHT22;2357;47.316;-1.348;2023-11-22T04:40:40;10.90;99.90
4687;DHT22;2357;47.316;-1.348;2023-11-22T04:43:08;10.90;99.90
4687;DHT22;2357;47.316;-1.348;2023-11-22T04:45:33;10.90;99.90
4687;DHT22;2357;47.316;-1.348;2023-11-22T04:48:00;10.90;99.90
4687;DHT22;2357;47.316;-1.348;2023-11-22T04:50:25;10.90;99.90
4687;DHT22;2357;47.316;-1.348;2023-11-22T04:52:51;10.90;99.90
4687;DHT22;2357;47.316;-1.348;2023-11-22T04:55:17;10.90;99.90
4687;DHT22;2357;47.316;-1.348;2023-11-22T04:57:47;10.90;99.90
4687;DHT22;2357;47.316;-1.348;2023-11-22T05:00:13;10.90;99.90
4687;DHT22;2357;47.316;-1.348;2023-11-22T05:02:39;10.90;99.90
4687;DHT22;2357;47.316;-1.348;2023-11-22T05:05:06;10.90;99.90
4687;DHT22;2357;47.316;-1.348;2023-11-22T05:07:32;10.90;99.90
4687;DHT22;2357;47.316;-1.348;2023-11-22T05:09:57;10.90;99.90
4687;DHT22;2357;47.316;-1.348;2023-11-22T05:12:23;10.90;99.90
4687;DHT22;2357;47.316;-1.348;2023-11-22T05:14:49;10.80;99.90
4687;DHT22;2357;47.316;-1.348;2023-11-22T05:17:14;10.90;99.90
4687;DHT22;2357;47.316;-1.348;2023-11-22T05:19:41;10.90;99.90
4687;DHT22;2357;47.316;-1.348;2023-11-22T05:22:06;10.80;99.90
4687;DHT22;2357;47.316;-1.348;2023-11-22T05:24:33;10.90;99.90
4687;DHT22;2357;47.316;-1.348;2023-11-22T05:27:00;10.90;99.90
4687;DHT22;2357;47.316;-1.348;2023-11-22T05:29:27;10.90;99.90
4687;DHT22;2357;47.316;-1.348;2023-11-22T05:31:53;10.80;99.90
4687;DHT22;2357;47.316;-1.348;2023-11-22T05:34:18;10.80;99.90
4687;DHT22;2357;47.316;-1.348;2023-11-22T05:36:44;10.80;99.90
4687;DHT22;2357;47.316;-1.348;2023-11-22T05:39:10;10.80;99.90
4687;DHT22;2357;47.316;-1.348;2023-11-22T05:41:38;10.80;99.90
4687;DHT22;2357;47.316;-1.348;2023-11-22T05:44:04;10.80;99.90
4687;DHT22;2357;47.316;-1.348;2023-11-22T05:46:29;10.80;99.90
4687;DHT22;2357;47.316;-1.348;2023-11-22T05:48:55;10.80;99.90
4687;DHT22;2357;47.316;-1.348;2023-11-22T05:51:21;10.70;99.90
4687;DHT22;2357;47.316;-1.348;2023-11-22T05:53:46;10.70;99.90
4687;DHT22;2357;47.316;-1.348;2023-11-22T05:56:12;10.70;99.90
4687;DHT22;2357;47.316;-1.348;2023-11-22T05:58:38;10.70;99.90
4687;DHT22;2357;47.316;-1.348;2023-11-22T06:01:08;10.70;99.90
4687;DHT22;2357;47.316;-1.348;2023-11-22T06:03:35;10.60;99.90
4687;DHT22;2357;47.316;-1.348;2023-11-22T06:06:01;10.70;99.90
4687;DHT22;2357;47.316;-1.348;2023-11-22T06:08:28;10.70;99.90
4687;DHT22;2357;47.316;-1.348;2023-11-22T06:10:54;10.70;99.90
4687;DHT22;2357;47.316;-1.348;2023-11-22T06:13:22;10.60;99.90
4687;DHT22;2357;47.316;-1.348;2023-11-22T06:15:48;10.60;99.90
4687;DHT22;2357;47.316;-1.348;2023-11-22T06:18:13;10.60;99.90
4687;DHT22;2357;47.316;-1.348;2023-11-22T06:20:43;10.60;99.90
4687;DHT22;2357;47.316;-1.348;2023-11-22T06:23:09;10.60;99.90
4687;DHT22;2357;47.316;-1.348;2023-11-22T06:25:35;10.60;99.90
4687;DHT22;2357;47.316;-1.348;2023-11-22T06:28:07;10.60;99.90
4687;DHT22;2357;47.316;-1.348;2023-11-22T06:30:33;10.60;99.90
4687;DHT22;2357;47.316;-1.348;2023-11-22T06:32:58;10.60;99.90
4687;DHT22;2357;47.316;-1.348;2023-11-22T06:35:25;10.60;99.90
4687;DHT22;2357;47.316;-1.348;2023-11-22T06:37:50;10.60;99.90
4687;DHT22;2357;47.316;-1.348;2023-11-22T06:40:16;10.60;99.90
4687;DHT22;2357;47.316;-1.348;2023-11-22T06:42:42;10.60;99.90
4687;DHT22;2357;47.316;-1.348;2023-11-22T06:45:09;10.60;99.90
4687;DHT22;2357;47.316;-1.348;2023-11-22T06:47:38;10.60;99.90
4687;DHT22;2357;47.316;-1.348;2023-11-22T06:50:04;10.60;99.90
4687;DHT22;2357;47.316;-1.348;2023-11-22T06:52:35;10.60;99.90
4687;DHT22;2357;47.316;-1.348;2023-11-22T06:55:02;10.70;99.90
4687;DHT22;2357;47.316;-1.348;2023-11-22T06:57:27;10.60;99.90
4687;DHT22;2357;47.316;-1.348;2023-11-22T06:59:55;10.60;99.90
4687;DHT22;2357;47.316;-1.348;2023-11-22T07:02:21;10.60;99.90
4687;DHT22;2357;47.316;-1.348;2023-11-22T07:04:47;10.60;99.90
4687;DHT22;2357;47.316;-1.348;2023-11-22T07:07:12;10.60;99.90
4687;DHT22;2357;47.316;-1.348;2023-11-22T07:09:42;10.60;99.90
4687;DHT22;2357;47.316;-1.348;2023-11-22T07:12:08;10.60;99.90
4687;DHT22;2357;47.316;-1.348;2023-11-22T07:14:34;10.60;99.90
4687;DHT22;2357;47.316;-1.348;2023-11-22T07:16:59;10.50;99.90
4687;DHT22;2357;47.316;-1.348;2023-11-22T07:19:25;10.60;99.90
4687;DHT22;2357;47.316;-1.348;2023-11-22T07:21:51;10.50;99.90
4687;DHT22;2357;47.316;-1.348;2023-11-22T07:24:17;10.50;99.90
4687;DHT22;2357;47.316;-1.348;2023-11-22T07:26:44;10.50;99.90
4687;DHT22;2357;47.316;-1.348;2023-11-22T07:29:09;10.50;99.90
4687;DHT22;2357;47.316;-1.348;2023-11-22T07:31:37;10.50;99.90
4687;DHT22;2357;47.316;-1.348;2023-11-22T07:34:03;10.50;99.90
4687;DHT22;2357;47.316;-1.348;2023-11-22T07:36:29;10.50;99.90
4687;DHT22;2357;47.316;-1.348;2023-11-22T07:38:56;10.50;99.90
4687;DHT22;2357;47.316;-1.348;2023-11-22T07:41:22;10.50;99.90
4687;DHT22;2357;47.316;-1.348;2023-11-22T07:43:47;10.60;99.90
4687;DHT22;2357;47.316;-1.348;2023-11-22T07:46:13;10.60;99.90
4687;DHT22;2357;47.316;-1.348;2023-11-22T07:48:39;10.60;99.90
4687;DHT22;2357;47.316;-1.348;2023-11-22T07:51:07;10.70;99.90
4687;DHT22;2357;47.316;-1.348;2023-11-22T07:53:33;10.70;99.90
4687;DHT22;2357;47.316;-1.348;2023-11-22T07:56:02;10.60;99.90
4687;DHT22;2357;47.316;-1.348;2023-11-22T07:58:31;10.60;99.90
4687;DHT22;2357;47.316;-1.348;2023-11-22T08:00:58;10.50;99.90
4687;DHT22;2357;47.316;-1.348;2023-11-22T08:03:25;10.50;99.90
4687;DHT22;2357;47.316;-1.348;2023-11-22T08:05:51;10.40;99.90
4687;DHT22;2357;47.316;-1.348;2023-11-22T08:08:23;10.40;99.90
4687;DHT22;2357;47.316;-1.348;2023-11-22T08:10:50;10.50;99.90
4687;DHT22;2357;47.316;-1.348;2023-11-22T08:13:19;10.50;99.90
4687;DHT22;2357;47.316;-1.348;2023-11-22T08:15:51;10.60;99.90
4687;DHT22;2357;47.316;-1.348;2023-11-22T08:18:16;10.70;99.90
4687;DHT22;2357;47.316;-1.348;2023-11-22T08:20:45;10.60;99.90
4687;DHT22;2357;47.316;-1.348;2023-11-22T08:23:10;10.70;99.90
4687;DHT22;2357;47.316;-1.348;2023-11-22T08:25:38;10.70;99.90
4687;DHT22;2357;47.316;-1.348;2023-11-22T08:28:04;10.70;99.90
4687;DHT22;2357;47.316;-1.348;2023-11-22T08:30:33;10.70;99.90
4687;DHT22;2357;47.316;-1.348;2023-11-22T08:33:01;10.70;99.90
4687;DHT22;2357;47.316;-1.348;2023-11-22T08:35:27;10.70;99.90
4687;DHT22;2357;47.316;-1.348;2023-11-22T08:37:53;10.70;99.90
4687;DHT22;2357;47.316;-1.348;2023-11-22T08:40:19;10.80;99.90
4687;DHT22;2357;47.316;-1.348;2023-11-22T08:42:46;10.80;99.90
4687;DHT22;2357;47.316;-1.348;2023-11-22T08:45:12;10.80;99.90
4687;DHT22;2357;47.316;-1.348;2023-11-22T08:47:39;10.80;99.90
4687;DHT22;2357;47.316;-1.348;2023-11-22T08:50:07;10.80;99.90
4687;DHT22;2357;47.316;-1.348;2023-11-22T08:52:33;10.80;99.90
4687;DHT22;2357;47.316;-1.348;2023-11-22T08:54:59;10.90;99.90
4687;DHT22;2357;47.316;-1.348;2023-11-22T08:57:28;10.90;99.90
4687;DHT22;2357;47.316;-1.348;2023-11-22T08:59:55;10.90;99.90
4687;DHT22;2357;47.316;-1.348;2023-11-22T09:02:21;10.90;99.90
4687;DHT22;2357;47.316;-1.348;2023-11-22T09:04:48;10.90;99.90
4687;DHT22;2357;47.316;-1.348;2023-11-22T09:07:13;10.90;99.90
4687;DHT22;2357;47.316;-1.348;2023-11-22T09:09:42;11.00;99.90
4687;DHT22;2357;47.316;-1.348;2023-11-22T09:12:08;11.00;99.90
4687;DHT22;2357;47.316;-1.348;2023-11-22T09:14:41;11.00;99.90
4687;DHT22;2357;47.316;-1.348;2023-11-22T09:17:08;11.00;99.90
4687;DHT22;2357;47.316;-1.348;2023-11-22T09:19:34;11.00;99.90
4687;DHT22;2357;47.316;-1.348;2023-11-22T09:22:01;11.00;99.90
4687;DHT22;2357;47.316;-1.348;2023-11-22T09:24:27;11.10;99.90
4687;DHT22;2357;47.316;-1.348;2023-11-22T09:26:52;11.10;99.90
4687;DHT22;2357;47.316;-1.348;2023-11-22T09:29:18;11.10;99.90
4687;DHT22;2357;47.316;-1.348;2023-11-22T09:31:44;11.00;99.90
4687;DHT22;2357;47.316;-1.348;2023-11-22T09:34:13;11.10;99.90
4687;DHT22;2357;47.316;-1.348;2023-11-22T09:36:39;11.10;99.90
4687;DHT22;2357;47.316;-1.348;2023-11-22T09:39:05;11.10;99.90
4687;DHT22;2357;47.316;-1.348;2023-11-22T09:41:35;11.20;99.90
4687;DHT22;2357;47.316;-1.348;2023-11-22T09:44:01;11.20;99.90
4687;DHT22;2357;47.316;-1.348;2023-11-22T09:46:27;11.20;99.90
4687;DHT22;2357;47.316;-1.348;2023-11-22T09:48:53;11.30;99.90
4687;DHT22;2357;47.316;-1.348;2023-11-22T09:51:27;11.30;99.90
4687;DHT22;2357;47.316;-1.348;2023-11-22T09:54:00;11.20;99.90
4687;DHT22;2357;47.316;-1.348;2023-11-22T09:56:32;11.30;99.90
4687;DHT22;2357;47.316;-1.348;2023-11-22T09:59:00;11.30;99.90
4687;DHT22;2357;47.316;-1.348;2023-11-22T10:01:29;11.30;99.90
4687;DHT22;2357;47.316;-1.348;2023-11-22T10:03:59;11.40;99.90
4687;DHT22;2357;47.316;-1.348;2023-11-22T10:06:24;11.40;99.90
4687;DHT22;2357;47.316;-1.348;2023-11-22T10:08:50;11.50;99.90
4687;DHT22;2357;47.316;-1.348;2023-11-22T10:11:18;11.60;99.90
4687;DHT22;2357;47.316;-1.348;2023-11-22T10:13:47;11.60;99.90
4687;DHT22;2357;47.316;-1.348;2023-11-22T10:16:13;11.60;99.90
4687;DHT22;2357;47.316;-1.348;2023-11-22T10:18:43;11.60;99.90
4687;DHT22;2357;47.316;-1.348;2023-11-22T10:21:22;11.60;99.90
4687;DHT22;2357;47.316;-1.348;2023-11-22T10:23:50;11.70;99.90
4687;DHT22;2357;47.316;-1.348;2023-11-22T10:26:17;11.70;99.90
4687;DHT22;2357;47.316;-1.348;2023-11-22T10:28:43;11.80;99.90
4687;DHT22;2357;47.316;-1.348;2023-11-22T10:31:09;11.90;99.90
4687;DHT22;2357;47.316;-1.348;2023-11-22T10:33:42;11.90;99.90
4687;DHT22;2357;47.316;-1.348;2023-11-22T10:36:08;11.90;99.90
4687;DHT22;2357;47.316;-1.348;2023-11-22T10:38:34;11.90;99.90
4687;DHT22;2357;47.316;-1.348;2023-11-22T10:41:09;12.00;99.90
4687;DHT22;2357;47.316;-1.348;2023-11-22T10:43:37;12.00;99.90
4687;DHT22;2357;47.316;-1.348;2023-11-22T10:46:03;12.10;99.90
4687;DHT22;2357;47.316;-1.348;2023-11-22T10:48:31;12.10;99.90
4687;DHT22;2357;47.316;-1.348;2023-11-22T10:51:00;12.10;99.90
4687;DHT22;2357;47.316;-1.348;2023-11-22T10:53:36;12.10;99.90
4687;DHT22;2357;47.316;-1.348;2023-11-22T10:58:33;12.20;99.90
4687;DHT22;2357;47.316;-1.348;2023-11-22T11:01:00;12.20;99.90
4687;DHT22;2357;47.316;-1.348;2023-11-22T11:03:28;12.20;99.90
4687;DHT22;2357;47.316;-1.348;2023-11-22T11:06:04;12.20;99.90
4687;DHT22;2357;47.316;-1.348;2023-11-22T11:08:35;12.30;99.90
4687;DHT22;2357;47.316;-1.348;2023-11-22T11:11:04;12.40;99.90
4687;DHT22;2357;47.316;-1.348;2023-11-22T11:13:31;12.50;99.90
4687;DHT22;2357;47.316;-1.348;2023-11-22T11:15:58;12.40;99.90
4687;DHT22;2357;47.316;-1.348;2023-11-22T11:18:25;12.40;99.90
4687;DHT22;2357;47.316;-1.348;2023-11-22T11:20:56;12.40;99.90
4687;DHT22;2357;47.316;-1.348;2023-11-22T11:23:23;12.40;99.90
4687;DHT22;2357;47.316;-1.348;2023-11-22T11:25:54;12.50;99.90
4687;DHT22;2357;47.316;-1.348;2023-11-22T11:28:20;12.50;99.90
4687;DHT22;2357;47.316;-1.348;2023-11-22T11:30:49;12.70;99.90
4687;DHT22;2357;47.316;-1.348;2023-11-22T11:33:18;12.80;99.90
4687;DHT22;2357;47.316;-1.348;2023-11-22T11:35:49;12.80;99.90
4687;DHT22;2357;47.316;-1.348;2023-11-22T11:38:21;12.80;99.90
4687;DHT22;2357;47.316;-1.348;2023-11-22T11:40:52;12.70;99.90
4687;DHT22;2357;47.316;-1.348;2023-11-22T11:43:48;12.60;99.90
4687;DHT22;2357;47.316;-1.348;2023-11-22T11:46:15;12.70;99.90
4687;DHT22;2357;47.316;-1.348;2023-11-22T11:48:45;12.70;99.90
4687;DHT22;2357;47.316;-1.348;2023-11-22T11:51:14;12.80;99.90
4687;DHT22;2357;47.316;-1.348;2023-11-22T11:53:40;12.80;99.90
4687;DHT22;2357;47.316;-1.348;2023-11-22T11:56:07;12.90;99.90
4687;DHT22;2357;47.316;-1.348;2023-11-22T11:58:34;13.00;99.90
4687;DHT22;2357;47.316;-1.348;2023-11-22T12:01:00;13.00;99.90
4687;DHT22;2357;47.316;-1.348;2023-11-22T12:03:26;13.00;99.90
4687;DHT22;2357;47.316;-1.348;2023-11-22T12:05:51;12.90;99.90
4687;DHT22;2357;47.316;-1.348;2023-11-22T12:08:17;13.00;99.90
4687;DHT22;2357;47.316;-1.348;2023-11-22T12:10:44;13.00;99.90
4687;DHT22;2357;47.316;-1.348;2023-11-22T12:13:17;13.00;99.90
4687;DHT22;2357;47.316;-1.348;2023-11-22T12:15:43;13.10;99.90
4687;DHT22;2357;47.316;-1.348;2023-11-22T12:18:09;13.30;99.90
4687;DHT22;2357;47.316;-1.348;2023-11-22T12:20:34;13.30;99.90
4687;DHT22;2357;47.316;-1.348;2023-11-22T12:23:01;13.30;99.90
4687;DHT22;2357;47.316;-1.348;2023-11-22T12:25:27;13.40;99.90
4687;DHT22;2357;47.316;-1.348;2023-11-22T12:27:56;13.40;99.90
4687;DHT22;2357;47.316;-1.348;2023-11-22T12:30:29;13.40;99.90
4687;DHT22;2357;47.316;-1.348;2023-11-22T12:33:05;13.20;99.90
4687;DHT22;2357;47.316;-1.348;2023-11-22T12:35:31;13.30;99.90
4687;DHT22;2357;47.316;-1.348;2023-11-22T12:38:02;13.50;99.90
4687;DHT22;2357;47.316;-1.348;2023-11-22T12:40:30;13.50;99.90
4687;DHT22;2357;47.316;-1.348;2023-11-22T12:43:00;13.50;99.90
4687;DHT22;2357;47.316;-1.348;2023-11-22T12:45:27;13.80;99.90
4687;DHT22;2357;47.316;-1.348;2023-11-22T12:47:54;13.90;99.90
4687;DHT22;2357;47.316;-1.348;2023-11-22T12:50:50;13.90;99.90
4687;DHT22;2357;47.316;-1.348;2023-11-22T12:53:16;14.00;99.90
4687;DHT22;2357;47.316;-1.348;2023-11-22T12:55:43;13.90;99.90
4687;DHT22;2357;47.316;-1.348;2023-11-22T12:58:09;13.90;99.90
4687;DHT22;2357;47.316;-1.348;2023-11-22T13:00:35;13.90;99.90
4687;DHT22;2357;47.316;-1.348;2023-11-22T13:03:01;13.80;99.90
4687;DHT22;2357;47.316;-1.348;2023-11-22T13:05:27;13.60;99.90
4687;DHT22;2357;47.316;-1.348;2023-11-22T13:07:53;13.50;99.90
4687;DHT22;2357;47.316;-1.348;2023-11-22T13:10:19;13.40;99.90
4687;DHT22;2357;47.316;-1.348;2023-11-22T13:12:49;13.30;99.90
4687;DHT22;2357;47.316;-1.348;2023-11-22T13:15:15;13.40;99.90
4687;DHT22;2357;47.316;-1.348;2023-11-22T13:17:41;13.30;99.90
4687;DHT22;2357;47.316;-1.348;2023-11-22T13:20:08;13.30;99.90
4687;DHT22;2357;47.316;-1.348;2023-11-22T13:22:43;13.20;99.90
4687;DHT22;2357;47.316;-1.348;2023-11-22T13:25:12;13.20;99.90
4687;DHT22;2357;47.316;-1.348;2023-11-22T13:27:45;13.20;99.90
4687;DHT22;2357;47.316;-1.348;2023-11-22T13:30:12;13.10;99.90
4687;DHT22;2357;47.316;-1.348;2023-11-22T13:32:37;12.90;99.90
4687;DHT22;2357;47.316;-1.348;2023-11-22T13:35:07;12.80;99.90
4687;DHT22;2357;47.316;-1.348;2023-11-22T13:37:39;12.80;99.90
4687;DHT22;2357;47.316;-1.348;2023-11-22T13:40:11;13.30;99.90
4687;DHT22;2357;47.316;-1.348;2023-11-22T13:42:43;13.80;99.90
4687;DHT22;2357;47.316;-1.348;2023-11-22T13:45:11;15.20;99.90
4687;DHT22;2357;47.316;-1.348;2023-11-22T13:47:43;18.10;99.90
4687;DHT22;2357;47.316;-1.348;2023-11-22T13:50:10;19.60;99.90
4687;DHT22;2357;47.316;-1.348;2023-11-22T13:52:36;21.00;99.90
4687;DHT22;2357;47.316;-1.348;2023-11-22T13:55:04;21.30;99.90
4687;DHT22;2357;47.316;-1.348;2023-11-22T13:57:33;22.20;99.90
4687;DHT22;2357;47.316;-1.348;2023-11-22T13:59:59;22.10;99.90
4687;DHT22;2357;47.316;-1.348;2023-11-22T14:02:24;22.00;99.90
4687;DHT22;2357;47.316;-1.348;2023-11-22T14:04:50;19.10;99.90
4687;DHT22;2357;47.316;-1.348;2023-11-22T14:07:16;18.60;99.90
4687;DHT22;2357;47.316;-1.348;2023-11-22T14:09:42;18.90;99.90
4687;DHT22;2357;47.316;-1.348;2023-11-22T14:12:10;17.90;99.90
4687;DHT22;2357;47.316;-1.348;2023-11-22T14:14:36;17.10;99.90
4687;DHT22;2357;47.316;-1.348;2023-11-22T14:17:02;16.20;99.90
4687;DHT22;2357;47.316;-1.348;2023-11-22T14:19:27;15.60;99.90
4687;DHT22;2357;47.316;-1.348;2023-11-22T14:21:53;15.20;99.90
4687;DHT22;2357;47.316;-1.348;2023-11-22T14:24:19;14.70;99.90
4687;DHT22;2357;47.316;-1.348;2023-11-22T14:26:44;14.80;99.90
4687;DHT22;2357;47.316;-1.348;2023-11-22T14:29:14;14.70;99.90
4687;DHT22;2357;47.316;-1.348;2023-11-22T14:31:39;14.70;99.90
4687;DHT22;2357;47.316;-1.348;2023-11-22T14:34:05;14.50;99.90
4687;DHT22;2357;47.316;-1.348;2023-11-22T14:36:31;14.60;99.90
4687;DHT22;2357;47.316;-1.348;2023-11-22T14:38:56;14.60;99.90
4687;DHT22;2357;47.316;-1.348;2023-11-22T14:41:22;14.50;99.90
4687;DHT22;2357;47.316;-1.348;2023-11-22T14:43:48;14.60;99.90
4687;DHT22;2357;47.316;-1.348;2023-11-22T14:46:14;14.60;99.90
4687;DHT22;2357;47.316;-1.348;2023-11-22T14:48:39;14.50;99.90
4687;DHT22;2357;47.316;-1.348;2023-11-22T14:51:05;14.30;99.90
4687;DHT22;2357;47.316;-1.348;2023-11-22T14:53:31;14.20;99.90
4687;DHT22;2357;47.316;-1.348;2023-11-22T14:55:56;14.10;99.90
4687;DHT22;2357;47.316;-1.348;2023-11-22T14:58:22;14.10;99.90
4687;DHT22;2357;47.316;-1.348;2023-11-22T15:00:48;14.20;99.90
4687;DHT22;2357;47.316;-1.348;2023-11-22T15:03:14;14.10;99.90
4687;DHT22;2357;47.316;-1.348;2023-11-22T15:05:40;14.10;99.90
4687;DHT22;2357;47.316;-1.348;2023-11-22T15:08:06;14.10;99.90
4687;DHT22;2357;47.316;-1.348;2023-11-22T15:10:33;13.90;99.90
4687;DHT22;2357;47.316;-1.348;2023-11-22T15:12:59;13.80;99.90
4687;DHT22;2357;47.316;-1.348;2023-11-22T15:15:25;13.60;99.90
4687;DHT22;2357;47.316;-1.348;2023-11-22T15:17:51;13.50;99.90
4687;DHT22;2357;47.316;-1.348;2023-11-22T15:20:16;13.40;99.90
4687;DHT22;2357;47.316;-1.348;2023-11-22T15:22:42;13.20;99.90
4687;DHT22;2357;47.316;-1.348;2023-11-22T15:25:08;13.00;99.90
4687;DHT22;2357;47.316;-1.348;2023-11-22T15:27:35;13.10;99.90
4687;DHT22;2357;47.316;-1.348;2023-11-22T15:30:01;13.10;99.90
4687;DHT22;2357;47.316;-1.348;2023-11-22T15:32:28;12.90;99.90
4687;DHT22;2357;47.316;-1.348;2023-11-22T15:34:54;12.80;99.90
4687;DHT22;2357;47.316;-1.348;2023-11-22T15:37:20;12.80;99.90
4687;DHT22;2357;47.316;-1.348;2023-11-22T15:39:45;12.50;99.90
4687;DHT22;2357;47.316;-1.348;2023-11-22T15:42:11;12.60;99.90
4687;DHT22;2357;47.316;-1.348;2023-11-22T15:44:37;12.40;99.90